Terminal Aerodrome Forecast
Issued by NWS

Home | Current Version | Previous Version | Text Only | Print | Product List | Glossary On
Versions: 1 2 3 4 5 6 7 8 9 10 11 12 13 14
000
FTUS45 KABQ 221100
TAFGUP
TAF
KGUP 221135Z 2212/2312 21005KT P6SM VCSH OVC040
      TEMPO 2213/2214 6SM -TSRA OVC040CB
     FM221600 24010KT P6SM SCT060
     FM221800 24005KT P6SM BKN060
     FM222000 27010G20KT P6SM SCT060
     FM230100 12005KT P6SM SCT060=

USA.gov is the U.S. government's official web portal to all federal, state and local government web resources and services.